Flight Track Log - Related Links

Times and Time Zones

All times are in EDT time to prevent confusion due to time zone crossing. See the ASQ5828 flight status page for this flight to view local times or setup timezone preferences in your user account.

Time Position Orientation Groundspeed Altitude Reporting Facility
EDT Latitude Longitude Course Direction KTS MPH feet Rate Location/Type
Sat 01:25:29 PM 38.1000 -85.7000 99° East 204 235 3,500  Level Louisville TRACON
Sat 01:26:14 PM 38.0861 -85.6542 111° Southeast 242 278 4,600 1,682 Climbing Indianapolis Center
Sat 01:27:00 PM 38.0667 -85.4047 90° East  Level FlightAware Approximate
Sat 01:27:16 PM 38.0828 -85.5617 93° East 256 295 6,500  Level Indianapolis Center
Sat 01:28:00 PM 38.0646 -85.2717 103° East  Level FlightAware Approximate
Sat 01:28:17 PM 38.0728 -85.4619 97° East 278 320 8,600  Level Indianapolis Center
Sat 01:29:00 PM 38.0410 -85.1418 103° East  Level FlightAware Approximate
Sat 01:29:19 PM 38.0644 -85.3569 96° East 292 336 10,100  Level Indianapolis Center
Sat 01:30:00 PM 38.0228 -84.9986 99° East  Level FlightAware Approximate
Sat 01:30:21 PM 38.0531 -85.2333 97° East 345 397 11,000  Level Indianapolis Center
Sat 01:31:23 PM 38.0444 -85.0911 94° East 370 426 12,600 1,452 Climbing Indianapolis Center
Sat 01:32:25 PM 38.0267 -84.9583 100° East 378 435 14,000 1,415 Climbing Indianapolis Center
Sat 01:33:26 PM 38.0056 -84.7972 99° East 393 452 15,500 1,366 Climbing Indianapolis Center
Sat 01:34:28 PM 37.9886 -84.6558 99° East 399 459 16,800 1,113 Climbing Indianapolis Center
Sat 01:35:30 PM 37.9719 -84.5125 98° East 407 468 17,800 1,113 Climbing Indianapolis Center
Sat 01:36:32 PM 37.9619 -84.3683 95° East 411 473 19,100 1,210 Climbing Indianapolis Center
Sat 01:37:34 PM 37.9556 -84.2175 93° East 417 480 20,300 1,161 Climbing Indianapolis Center
Sat 01:38:36 PM 37.9489 -84.0681 93° East 419 482 21,500 1,161 Climbing Indianapolis Center
Sat 01:39:38 PM 37.9408 -83.8878 93° East 432 497 22,700 1,122 Climbing Indianapolis Center
Sat 01:40:39 PM 37.9331 -83.7336 94° East 435 501 23,800 1,122 Climbing Indianapolis Center
Sat 01:41:41 PM 37.9256 -83.5775 93° East 438 504 25,000 1,210 Climbing Indianapolis Center
Sat 01:42:43 PM 37.9183 -83.4256 93° East 437 503 26,300 1,161 Climbing Indianapolis Center
Sat 01:43:45 PM 37.9106 -83.2722 94° East 437 503 27,400 1,113 Climbing Indianapolis Center
Sat 01:44:47 PM 37.9025 -83.1219 94° East 433 498 28,600 1,113 Climbing Indianapolis Center
Sat 01:45:49 PM 37.8944 -82.9714 94° East 429 494 29,700 1,171 Climbing Indianapolis Center
Sat 01:46:50 PM 37.8853 -82.7972 94° East 426 490 31,000 634 Climbing Indianapolis Center
Sat 01:47:52 PM 37.8767 -82.6417 94° East 432 497 31,000  Level Indianapolis Center
Sat 01:48:54 PM 37.8675 -82.4764 94° East 456 525 31,000 242 Level Indianapolis Center
Sat 01:49:56 PM 37.8569 -82.3028 94° East 479 551 31,500 871 Climbing Indianapolis Center
Sat 01:50:58 PM 37.8453 -82.1156 94° East 488 562 32,800 726 Climbing Indianapolis Center
Sat 01:52:00 PM 37.8364 -81.9600 94° East 487 560 33,000 98 Climbing Indianapolis Center
Sat 01:53:01 PM 37.8236 -81.7806 95° East 499 574 33,000 488 Level Indianapolis Center
Sat 01:54:03 PM 37.8106 -81.5736 95° East 505 581 34,000 919 Climbing Indianapolis Center
Sat 01:55:05 PM 37.8000 -81.4069 95° East 500 575 34,900 484 Climbing Indianapolis Center
Sat 01:56:07 PM 37.7883 -81.2358 95° East 500 575 35,000 97 Climbing Indianapolis Center
Sat 01:57:09 PM 37.7833 -81.0614 92° East 507 583 35,100  Climbing Indianapolis Center
Sat 01:58:10 PM 37.7981 -80.8528 85° East 506 582 35,000 -49 Descending Indianapolis Center
Sat 01:59:12 PM 37.8097 -80.6800 85° East 506 582 35,000  Level Indianapolis Center
Sat 02:00:14 PM 37.8222 -80.5008 85° East 506 582 35,000  Level Indianapolis Center
Sat 02:01:19 PM 37.8342 -80.3072 85° East 498 573 35,000  Level Washington Center
Sat 02:02:19 PM 37.8442 -80.1383 86° East 495 570 35,000  Level Washington Center
Sat 02:03:22 PM 37.8539 -79.9711 86° East 491 565 35,000  Level Washington Center
Sat 02:04:24 PM 37.8628 -79.8017 86° East 493 567 35,000  Level Washington Center
Sat 02:05:27 PM 37.8739 -79.5997 86° East 490 564 35,000  Level Washington Center
Sat 02:06:29 PM 37.8836 -79.4297 86° East 491 565 35,000  Level Washington Center
Sat 02:07:32 PM 37.8914 -79.2592 87° East 495 570 35,000  Level Washington Center
Sat 02:08:32 PM 37.9075 -79.0556 84° East 495 570 35,000  Level Washington Center
Sat 02:09:36 PM 37.9278 -78.8889 81° East 495 570 35,000  Level Washington Center
Sat 02:10:38 PM 37.9481 -78.7189 81° East 499 574 35,000  Level Washington Center
Sat 02:11:39 PM 37.9678 -78.5519 81° East 495 570 35,000  Level Washington Center
Sat 02:12:42 PM 37.9917 -78.3511 81° East 494 568 35,000  Level Washington Center
Sat 02:13:43 PM 38.0175 -78.1775 79° East 488 562 35,000  Level Washington Center
Sat 02:14:47 PM 38.0775 -78.0275 63° Northeast 481 554 35,000  Level Washington Center
Sat 02:15:48 PM 38.1492 -77.8850 57° Northeast 481 554 35,000  Level Washington Center
Sat 02:16:50 PM 38.2197 -77.7417 58° Northeast 481 554 35,000  Level Washington Center
Sat 02:17:53 PM 38.2883 -77.6014 58° Northeast 474 545 35,000  Level Washington Center
Sat 02:18:54 PM 38.3706 -77.4358 58° Northeast 469 540 35,000  Level Washington Center
Sat 02:19:57 PM 38.4378 -77.2981 58° Northeast 466 536 35,000  Level Washington Center
Sat 02:20:57 PM 38.5058 -77.1603 58° Northeast 465 535 35,000  Level Washington Center
Sat 02:22:02 PM 38.5725 -77.0214 58° Northeast 464 534 35,000  Level Washington Center
Sat 02:23:02 PM 38.6425 -76.8792 58° Northeast 473 544 35,000  Level Washington Center
Sat 02:24:06 PM 38.7300 -76.7211 55° Northeast 456 525 35,000  Level Washington Center
Sat 02:25:07 PM 38.8181 -76.6167 43° Northeast 437 503 35,000  Level Washington Center
Sat 02:26:10 PM 38.9067 -76.5139 42° Northeast 433 498 35,000 -780 Level Washington Center
Sat 02:27:10 PM 38.9972 -76.4100 42° Northeast 434 499 33,400 -1,935 Descending Washington Center
Sat 02:28:14 PM 39.0925 -76.2994 42° Northeast 458 527 31,000 -2,688 Descending Washington Center
Sat 02:29:15 PM 39.2072 -76.1647 42° Northeast 464 534 27,800 -1,967 Descending Washington Center
Sat 02:30:16 PM 39.3022 -76.0542 42° Northeast 450 518 27,000 -387 Descending Washington Center
Sat 02:31:19 PM 39.3928 -75.9458 43° Northeast 446 513 27,000 -96 Level Washington Center
Sat 02:32:21 PM 39.4864 -75.8375 42° Northeast 449 517 26,800 -810 Descending Washington Center
Sat 02:33:25 PM 39.5800 -75.7256 43° Northeast 456 525 25,300 -1,694 Descending Washington Center
Sat 02:34:25 PM 39.6739 -75.6119 43° Northeast 461 531 23,300 -2,390 Descending Washington Center
Sat 02:35:28 PM 39.7622 -75.5064 43° Northeast 432 497 20,400 -2,661 Descending Washington Center
Sat 02:36:29 PM 39.8436 -75.4061 43° Northeast 406 467 17,800 -2,448 Descending Washington Center
Sat 02:37:33 PM 39.9386 -75.2925 43° Northeast 385 443 15,300 -2,081 Descending Washington Center
Sat 02:38:33 PM 40.0197 -75.1942 43° Northeast 392 451 13,500 -1,790 Descending Washington Center
Sat 02:39:37 PM 40.0994 -75.0969 43° Northeast 391 450 11,600 -1,344 Descending Washington Center
Sat 02:40:38 PM 40.1686 -75.0108 44° Northeast 334 384 10,700 -1,389 Descending Washington Center
Sat 02:41:25 PM 40.2333 -74.9500 36° Northeast 303 349 9,100 -1,514 Descending New York TRACON
Sat 02:42:25 PM 40.2833 -74.8667 52° Northeast 272 313 8,000 -800 Descending New York TRACON
Sat 02:43:25 PM 40.3333 -74.8000 45° Northeast 289 333 7,500 -750 Descending New York TRACON
Sat 02:44:25 PM 40.3833 -74.7167 52° Northeast 274 315 6,500 -750 Descending New York TRACON
Sat 02:45:25 PM 40.4500 -74.6667 30° Northeast 259 298 6,000 -250 Descending New York TRACON
Sat 02:46:25 PM 40.5167 -74.6500 11° North 249 287 6,000  Level New York TRACON
Sat 02:47:25 PM 40.5833 -74.6333 11° North 256 295 6,000  Level New York TRACON
Sat 02:48:19 PM 40.6500 -74.6167 11° North 266 306 6,000 -150 Level New York TRACON
Sat 02:49:25 PM 40.7333 -74.5833 17° North 265 305 5,700 -450 Descending New York TRACON
Sat 02:50:19 PM 40.7833 -74.5667 14° North 257 296 5,100 -350 Descending New York TRACON
Sat 02:51:25 PM 40.8500 -74.5167 30° Northeast 250 288 5,000 -50 Descending New York TRACON
Sat 02:52:20 PM 40.8833 -74.4500 57° Northeast 268 308 5,000  Level New York TRACON
Sat 02:53:25 PM 40.9333 -74.3500 56° Northeast 265 305 5,000 -96 Level New York TRACON
Sat 02:54:25 PM 40.9333 -74.2667 90° East 244 281 4,800 -476 Descending New York TRACON
Sat 02:55:31 PM 40.9333 -74.1667 90° East 242 278 4,000 -429 Descending New York TRACON
Sat 02:56:31 PM 40.9000 -74.1000 123° Southeast 218 251 3,900 -470 Descending New York TRACON
Sat 02:57:26 PM 40.8667 -74.0667 143° Southeast 189 217 3,100 -700 Descending New York TRACON
Sat 02:58:31 PM 40.8167 -74.0833 194° South 169 194 2,500 -750 Descending New York TRACON
Sat 02:59:26 PM 40.7667 -74.0833 180° South 167 192 1,600 -626 Descending New York TRACON
Sat 03:00:26 PM 40.7333 -74.0833 180° South 157 181 1,300 -550 Descending New York TRACON
Sat 03:01:26 PM 40.7000 -74.1167 217° Southwest 145 167 500 -800 Descending New York TRACON

Login

Don't have an account? Register now (free) for customized features, flight alerts, and more!